sensor_id;sensor_type;location;lat;lon;timestamp;P1;durP1;ratioP1;P2;durP2;ratioP2
54452;SDS011;40363;52.270;10.546;2023-03-21T00:01:11;19.30;;;10.00;;
54452;SDS011;40363;52.270;10.546;2023-03-21T00:03:39;14.43;;;9.57;;
54452;SDS011;40363;52.270;10.546;2023-03-21T00:06:07;17.63;;;10.40;;
54452;SDS011;40363;52.270;10.546;2023-03-21T00:08:36;19.75;;;9.60;;
54452;SDS011;40363;52.270;10.546;2023-03-21T00:11:06;21.48;;;9.52;;
54452;SDS011;40363;52.270;10.546;2023-03-21T00:13:34;17.00;;;9.60;;
54452;SDS011;40363;52.270;10.546;2023-03-21T00:16:03;13.85;;;8.20;;
54452;SDS011;40363;52.270;10.546;2023-03-21T00:18:31;17.23;;;9.35;;
54452;SDS011;40363;52.270;10.546;2023-03-21T00:21:01;18.75;;;9.38;;
54452;SDS011;40363;52.270;10.546;2023-03-21T00:23:30;18.13;;;10.15;;
54452;SDS011;40363;52.270;10.546;2023-03-21T00:25:58;12.57;;;8.35;;
54452;SDS011;40363;52.270;10.546;2023-03-21T00:28:26;19.05;;;9.57;;
54452;SDS011;40363;52.270;10.546;2023-03-21T00:30:55;16.33;;;8.85;;
54452;SDS011;40363;52.270;10.546;2023-03-21T00:33:23;17.50;;;9.35;;
54452;SDS011;40363;52.270;10.546;2023-03-21T00:35:50;17.42;;;8.82;;
54452;SDS011;40363;52.270;10.546;2023-03-21T00:38:17;17.90;;;9.30;;
54452;SDS011;40363;52.270;10.546;2023-03-21T00:40:44;22.67;;;9.30;;
54452;SDS011;40363;52.270;10.546;2023-03-21T00:43:11;18.23;;;9.73;;
54452;SDS011;40363;52.270;10.546;2023-03-21T00:45:39;17.52;;;10.70;;
54452;SDS011;40363;52.270;10.546;2023-03-21T00:48:07;20.42;;;11.38;;
54452;SDS011;40363;52.270;10.546;2023-03-21T00:50:34;19.70;;;10.27;;
54452;SDS011;40363;52.270;10.546;2023-03-21T00:53:00;20.65;;;10.38;;
54452;SDS011;40363;52.270;10.546;2023-03-21T00:55:27;23.13;;;11.93;;
54452;SDS011;40363;52.270;10.546;2023-03-21T00:57:53;20.98;;;11.18;;
54452;SDS011;40363;52.270;10.546;2023-03-21T01:00:20;20.92;;;11.70;;
54452;SDS011;40363;52.270;10.546;2023-03-21T01:02:48;33.80;;;12.85;;
54452;SDS011;40363;52.270;10.546;2023-03-21T01:05:21;19.20;;;10.68;;
54452;SDS011;40363;52.270;10.546;2023-03-21T01:08:08;21.42;;;11.95;;
54452;SDS011;40363;52.270;10.546;2023-03-21T01:10:37;23.63;;;11.93;;
54452;SDS011;40363;52.270;10.546;2023-03-21T01:13:04;24.15;;;11.93;;
54452;SDS011;40363;52.270;10.546;2023-03-21T01:15:30;22.50;;;11.75;;
54452;SDS011;40363;52.270;10.546;2023-03-21T01:17:58;23.80;;;12.23;;
54452;SDS011;40363;52.270;10.546;2023-03-21T01:20:25;21.17;;;12.48;;
54452;SDS011;40363;52.270;10.546;2023-03-21T01:22:52;19.23;;;11.20;;
54452;SDS011;40363;52.270;10.546;2023-03-21T01:25:19;30.52;;;12.38;;
54452;SDS011;40363;52.270;10.546;2023-03-21T01:27:46;23.27;;;12.45;;
54452;SDS011;40363;52.270;10.546;2023-03-21T01:30:12;22.52;;;11.65;;
54452;SDS011;40363;52.270;10.546;2023-03-21T01:32:39;22.40;;;11.63;;
54452;SDS011;40363;52.270;10.546;2023-03-21T01:35:07;17.40;;;11.20;;
54452;SDS011;40363;52.270;10.546;2023-03-21T01:37:34;20.02;;;9.85;;
54452;SDS011;40363;52.270;10.546;2023-03-21T01:40:01;20.63;;;11.63;;
54452;SDS011;40363;52.270;10.546;2023-03-21T01:42:29;21.83;;;11.98;;
54452;SDS011;40363;52.270;10.546;2023-03-21T01:44:56;20.33;;;10.40;;
54452;SDS011;40363;52.270;10.546;2023-03-21T01:47:25;20.27;;;11.18;;
54452;SDS011;40363;52.270;10.546;2023-03-21T01:49:53;22.27;;;11.65;;
54452;SDS011;40363;52.270;10.546;2023-03-21T01:52:26;18.65;;;11.20;;
54452;SDS011;40363;52.270;10.546;2023-03-21T01:54:56;19.40;;;11.93;;
54452;SDS011;40363;52.270;10.546;2023-03-21T01:57:24;22.15;;;11.70;;
54452;SDS011;40363;52.270;10.546;2023-03-21T01:59:58;23.40;;;12.13;;
54452;SDS011;40363;52.270;10.546;2023-03-21T02:02:36;16.50;;;9.88;;
54452;SDS011;40363;52.270;10.546;2023-03-21T02:05:15;19.83;;;10.90;;
54452;SDS011;40363;52.270;10.546;2023-03-21T02:07:45;19.52;;;11.07;;
54452;SDS011;40363;52.270;10.546;2023-03-21T02:10:12;19.45;;;10.52;;
54452;SDS011;40363;52.270;10.546;2023-03-21T02:12:41;20.17;;;10.60;;
54452;SDS011;40363;52.270;10.546;2023-03-21T02:15:08;24.23;;;11.55;;
54452;SDS011;40363;52.270;10.546;2023-03-21T02:17:36;22.20;;;10.45;;
54452;SDS011;40363;52.270;10.546;2023-03-21T02:20:16;16.92;;;10.20;;
54452;SDS011;40363;52.270;10.546;2023-03-21T02:26:20;20.90;;;10.18;;
54452;SDS011;40363;52.270;10.546;2023-03-21T02:29:06;21.52;;;10.18;;
54452;SDS011;40363;52.270;10.546;2023-03-21T02:31:49;15.73;;;8.50;;
54452;SDS011;40363;52.270;10.546;2023-03-21T02:34:23;16.95;;;10.10;;
54452;SDS011;40363;52.270;10.546;2023-03-21T02:37:11;20.98;;;8.50;;
54452;SDS011;40363;52.270;10.546;2023-03-21T02:39:48;17.10;;;8.95;;
54452;SDS011;40363;52.270;10.546;2023-03-21T02:42:20;16.48;;;8.40;;
54452;SDS011;40363;52.270;10.546;2023-03-21T02:44:55;15.10;;;7.43;;
54452;SDS011;40363;52.270;10.546;2023-03-21T02:47:27;15.73;;;8.15;;
54452;SDS011;40363;52.270;10.546;2023-03-21T02:50:00;15.77;;;8.43;;
54452;SDS011;40363;52.270;10.546;2023-03-21T02:52:34;15.55;;;9.23;;
54452;SDS011;40363;52.270;10.546;2023-03-21T02:55:03;17.73;;;9.15;;
54452;SDS011;40363;52.270;10.546;2023-03-21T02:57:37;19.90;;;8.73;;
54452;SDS011;40363;52.270;10.546;2023-03-21T03:00:07;15.07;;;8.02;;
54452;SDS011;40363;52.270;10.546;2023-03-21T03:02:37;19.17;;;8.60;;
54452;SDS011;40363;52.270;10.546;2023-03-21T03:05:10;15.30;;;8.40;;
54452;SDS011;40363;52.270;10.546;2023-03-21T03:07:41;18.42;;;8.93;;
54452;SDS011;40363;52.270;10.546;2023-03-21T03:10:21;19.90;;;10.15;;
54452;SDS011;40363;52.270;10.546;2023-03-21T03:13:04;18.40;;;8.85;;
54452;SDS011;40363;52.270;10.546;2023-03-21T03:15:42;16.08;;;8.93;;
54452;SDS011;40363;52.270;10.546;2023-03-21T03:18:17;14.35;;;7.88;;
54452;SDS011;40363;52.270;10.546;2023-03-21T03:20:51;16.65;;;9.77;;
54452;SDS011;40363;52.270;10.546;2023-03-21T03:23:31;20.98;;;10.30;;
54452;SDS011;40363;52.270;10.546;2023-03-21T03:26:05;14.80;;;9.07;;
54452;SDS011;40363;52.270;10.546;2023-03-21T03:28:35;21.35;;;8.85;;
54452;SDS011;40363;52.270;10.546;2023-03-21T03:31:04;22.50;;;9.43;;
54452;SDS011;40363;52.270;10.546;2023-03-21T03:33:37;16.63;;;9.05;;
54452;SDS011;40363;52.270;10.546;2023-03-21T03:36:08;14.70;;;8.57;;
54452;SDS011;40363;52.270;10.546;2023-03-21T03:38:40;21.42;;;11.68;;
54452;SDS011;40363;52.270;10.546;2023-03-21T03:41:08;16.15;;;9.07;;
54452;SDS011;40363;52.270;10.546;2023-03-21T03:43:39;15.30;;;9.48;;
54452;SDS011;40363;52.270;10.546;2023-03-21T03:46:16;16.90;;;9.52;;
54452;SDS011;40363;52.270;10.546;2023-03-21T03:48:47;14.35;;;8.25;;
54452;SDS011;40363;52.270;10.546;2023-03-21T03:51:19;18.70;;;9.13;;
54452;SDS011;40363;52.270;10.546;2023-03-21T03:53:52;17.00;;;9.30;;
54452;SDS011;40363;52.270;10.546;2023-03-21T03:56:22;18.50;;;9.38;;
54452;SDS011;40363;52.270;10.546;2023-03-21T03:58:50;17.58;;;8.65;;
54452;SDS011;40363;52.270;10.546;2023-03-21T04:01:17;15.85;;;8.85;;
54452;SDS011;40363;52.270;10.546;2023-03-21T04:03:44;15.70;;;8.00;;
54452;SDS011;40363;52.270;10.546;2023-03-21T04:06:17;19.55;;;8.27;;
54452;SDS011;40363;52.270;10.546;2023-03-21T04:08:44;17.08;;;7.78;;
54452;SDS011;40363;52.270;10.546;2023-03-21T04:11:13;19.88;;;8.65;;
54452;SDS011;40363;52.270;10.546;2023-03-21T04:13:40;17.08;;;8.15;;
54452;SDS011;40363;52.270;10.546;2023-03-21T04:16:07;14.20;;;8.80;;
54452;SDS011;40363;52.270;10.546;2023-03-21T04:18:35;16.83;;;8.90;;
54452;SDS011;40363;52.270;10.546;2023-03-21T04:21:05;19.00;;;9.25;;
54452;SDS011;40363;52.270;10.546;2023-03-21T04:23:33;14.85;;;7.68;;
54452;SDS011;40363;52.270;10.546;2023-03-21T04:26:00;16.52;;;8.43;;
54452;SDS011;40363;52.270;10.546;2023-03-21T04:28:29;14.10;;;7.45;;
54452;SDS011;40363;52.270;10.546;2023-03-21T04:30:55;14.90;;;8.00;;
54452;SDS011;40363;52.270;10.546;2023-03-21T04:33:22;15.95;;;7.47;;
54452;SDS011;40363;52.270;10.546;2023-03-21T04:35:50;14.93;;;7.60;;
54452;SDS011;40363;52.270;10.546;2023-03-21T04:38:20;18.80;;;8.65;;
54452;SDS011;40363;52.270;10.546;2023-03-21T04:40:47;15.27;;;7.70;;
54452;SDS011;40363;52.270;10.546;2023-03-21T04:43:13;15.50;;;8.32;;
54452;SDS011;40363;52.270;10.546;2023-03-21T04:45:42;16.27;;;7.45;;
54452;SDS011;40363;52.270;10.546;2023-03-21T04:48:08;14.80;;;6.65;;
54452;SDS011;40363;52.270;10.546;2023-03-21T04:50:35;15.93;;;7.80;;
54452;SDS011;40363;52.270;10.546;2023-03-21T04:53:01;16.02;;;7.47;;
54452;SDS011;40363;52.270;10.546;2023-03-21T04:55:28;13.68;;;7.88;;
54452;SDS011;40363;52.270;10.546;2023-03-21T04:57:55;17.20;;;9.15;;
54452;SDS011;40363;52.270;10.546;2023-03-21T05:00:22;17.02;;;8.07;;
54452;SDS011;40363;52.270;10.546;2023-03-21T05:02:51;19.70;;;8.57;;
54452;SDS011;40363;52.270;10.546;2023-03-21T05:05:17;18.92;;;7.95;;
54452;SDS011;40363;52.270;10.546;2023-03-21T05:07:44;13.57;;;8.25;;
54452;SDS011;40363;52.270;10.546;2023-03-21T05:10:10;18.52;;;7.97;;
54452;SDS011;40363;52.270;10.546;2023-03-21T05:12:37;20.02;;;8.50;;
54452;SDS011;40363;52.270;10.546;2023-03-21T05:15:05;17.10;;;9.25;;
54452;SDS011;40363;52.270;10.546;2023-03-21T05:17:32;16.88;;;7.75;;
54452;SDS011;40363;52.270;10.546;2023-03-21T05:20:00;18.67;;;8.05;;
54452;SDS011;40363;52.270;10.546;2023-03-21T05:22:28;14.13;;;7.15;;
54452;SDS011;40363;52.270;10.546;2023-03-21T05:25:05;14.18;;;7.43;;
54452;SDS011;40363;52.270;10.546;2023-03-21T05:27:33;17.55;;;8.07;;
54452;SDS011;40363;52.270;10.546;2023-03-21T05:30:00;16.67;;;7.32;;
54452;SDS011;40363;52.270;10.546;2023-03-21T05:32:28;12.73;;;7.00;;
54452;SDS011;40363;52.270;10.546;2023-03-21T05:34:55;17.45;;;8.00;;
54452;SDS011;40363;52.270;10.546;2023-03-21T05:37:23;14.93;;;8.63;;
54452;SDS011;40363;52.270;10.546;2023-03-21T05:39:50;18.23;;;8.35;;
54452;SDS011;40363;52.270;10.546;2023-03-21T05:42:17;19.70;;;8.57;;
54452;SDS011;40363;52.270;10.546;2023-03-21T05:44:43;18.88;;;8.25;;
54452;SDS011;40363;52.270;10.546;2023-03-21T05:47:10;15.10;;;8.27;;
54452;SDS011;40363;52.270;10.546;2023-03-21T05:49:37;20.52;;;8.25;;
54452;SDS011;40363;52.270;10.546;2023-03-21T05:52:04;12.77;;;7.72;;
54452;SDS011;40363;52.270;10.546;2023-03-21T05:54:32;22.58;;;9.35;;
54452;SDS011;40363;52.270;10.546;2023-03-21T05:56:58;20.60;;;7.32;;
54452;SDS011;40363;52.270;10.546;2023-03-21T05:59:25;18.05;;;8.45;;
54452;SDS011;40363;52.270;10.546;2023-03-21T06:01:51;19.00;;;7.72;;
54452;SDS011;40363;52.270;10.546;2023-03-21T06:04:18;16.35;;;8.45;;
54452;SDS011;40363;52.270;10.546;2023-03-21T06:06:45;17.10;;;7.75;;
54452;SDS011;40363;52.270;10.546;2023-03-21T06:09:11;16.67;;;7.88;;
54452;SDS011;40363;52.270;10.546;2023-03-21T06:11:41;15.68;;;8.38;;
54452;SDS011;40363;52.270;10.546;2023-03-21T06:14:11;18.38;;;7.68;;
54452;SDS011;40363;52.270;10.546;2023-03-21T06:16:38;16.73;;;6.88;;
54452;SDS011;40363;52.270;10.546;2023-03-21T06:19:04;12.32;;;6.55;;
54452;SDS011;40363;52.270;10.546;2023-03-21T06:21:31;13.23;;;7.45;;
54452;SDS011;40363;52.270;10.546;2023-03-21T06:23:57;18.25;;;7.18;;
54452;SDS011;40363;52.270;10.546;2023-03-21T06:26:24;16.00;;;6.97;;
54452;SDS011;40363;52.270;10.546;2023-03-21T06:28:52;15.27;;;6.95;;
54452;SDS011;40363;52.270;10.546;2023-03-21T06:31:19;14.35;;;6.85;;
54452;SDS011;40363;52.270;10.546;2023-03-21T06:33:46;12.00;;;7.05;;
54452;SDS011;40363;52.270;10.546;2023-03-21T06:36:13;12.85;;;7.07;;
54452;SDS011;40363;52.270;10.546;2023-03-21T06:38:40;15.02;;;7.05;;
54452;SDS011;40363;52.270;10.546;2023-03-21T06:41:07;19.85;;;7.50;;
54452;SDS011;40363;52.270;10.546;2023-03-21T06:43:34;16.00;;;6.07;;
54452;SDS011;40363;52.270;10.546;2023-03-21T06:46:01;16.27;;;6.90;;
54452;SDS011;40363;52.270;10.546;2023-03-21T06:48:29;14.80;;;6.75;;
54452;SDS011;40363;52.270;10.546;2023-03-21T06:50:56;13.23;;;6.22;;
54452;SDS011;40363;52.270;10.546;2023-03-21T06:53:23;15.35;;;7.25;;
54452;SDS011;40363;52.270;10.546;2023-03-21T06:55:51;13.80;;;7.28;;
54452;SDS011;40363;52.270;10.546;2023-03-21T06:58:19;13.30;;;5.63;;
54452;SDS011;40363;52.270;10.546;2023-03-21T07:00:49;11.57;;;6.10;;
54452;SDS011;40363;52.270;10.546;2023-03-21T07:03:17;17.35;;;6.90;;
54452;SDS011;40363;52.270;10.546;2023-03-21T07:05:43;13.38;;;6.38;;
54452;SDS011;40363;52.270;10.546;2023-03-21T07:08:10;17.67;;;7.57;;
54452;SDS011;40363;52.270;10.546;2023-03-21T07:10:38;15.95;;;6.43;;
54452;SDS011;40363;52.270;10.546;2023-03-21T07:13:05;12.07;;;6.35;;
54452;SDS011;40363;52.270;10.546;2023-03-21T07:15:32;14.88;;;7.05;;
54452;SDS011;40363;52.270;10.546;2023-03-21T07:18:02;12.32;;;6.53;;
54452;SDS011;40363;52.270;10.546;2023-03-21T07:20:30;16.20;;;7.55;;
54452;SDS011;40363;52.270;10.546;2023-03-21T07:22:57;9.48;;;6.53;;
54452;SDS011;40363;52.270;10.546;2023-03-21T07:25:23;11.02;;;6.55;;
54452;SDS011;40363;52.270;10.546;2023-03-21T07:27:50;15.80;;;7.60;;
54452;SDS011;40363;52.270;10.546;2023-03-21T07:30:17;12.88;;;6.55;;
54452;SDS011;40363;52.270;10.546;2023-03-21T07:32:44;16.40;;;7.00;;
54452;SDS011;40363;52.270;10.546;2023-03-21T07:35:12;11.15;;;6.45;;
54452;SDS011;40363;52.270;10.546;2023-03-21T07:37:41;12.02;;;6.43;;
54452;SDS011;40363;52.270;10.546;2023-03-21T07:40:09;12.05;;;6.18;;
54452;SDS011;40363;52.270;10.546;2023-03-21T07:42:37;13.38;;;6.50;;
54452;SDS011;40363;52.270;10.546;2023-03-21T07:45:04;16.60;;;7.38;;
54452;SDS011;40363;52.270;10.546;2023-03-21T07:47:32;15.18;;;6.85;;
54452;SDS011;40363;52.270;10.546;2023-03-21T07:49:59;17.00;;;7.15;;
54452;SDS011;40363;52.270;10.546;2023-03-21T07:52:26;15.68;;;6.80;;
54452;SDS011;40363;52.270;10.546;2023-03-21T07:54:53;16.42;;;6.60;;
54452;SDS011;40363;52.270;10.546;2023-03-21T07:57:20;13.38;;;6.68;;
54452;SDS011;40363;52.270;10.546;2023-03-21T07:59:47;15.35;;;7.13;;
54452;SDS011;40363;52.270;10.546;2023-03-21T08:02:13;14.77;;;5.95;;
54452;SDS011;40363;52.270;10.546;2023-03-21T08:04:41;17.30;;;6.40;;
54452;SDS011;40363;52.270;10.546;2023-03-21T08:07:08;10.63;;;6.38;;
54452;SDS011;40363;52.270;10.546;2023-03-21T08:09:34;12.00;;;7.15;;
54452;SDS011;40363;52.270;10.546;2023-03-21T08:12:04;11.77;;;6.28;;
54452;SDS011;40363;52.270;10.546;2023-03-21T08:14:32;16.83;;;7.03;;
54452;SDS011;40363;52.270;10.546;2023-03-21T08:16:58;15.13;;;7.18;;
54452;SDS011;40363;52.270;10.546;2023-03-21T08:19:25;15.52;;;6.03;;
54452;SDS011;40363;52.270;10.546;2023-03-21T08:21:52;12.90;;;5.93;;
54452;SDS011;40363;52.270;10.546;2023-03-21T08:24:18;10.45;;;6.30;;
54452;SDS011;40363;52.270;10.546;2023-03-21T08:26:45;12.68;;;6.22;;
54452;SDS011;40363;52.270;10.546;2023-03-21T08:29:13;11.75;;;6.25;;
54452;SDS011;40363;52.270;10.546;2023-03-21T08:31:39;11.00;;;5.97;;
54452;SDS011;40363;52.270;10.546;2023-03-21T08:34:06;11.57;;;6.28;;
54452;SDS011;40363;52.270;10.546;2023-03-21T08:36:34;12.40;;;6.60;;
54452;SDS011;40363;52.270;10.546;2023-03-21T08:39:02;12.60;;;6.40;;
54452;SDS011;40363;52.270;10.546;2023-03-21T08:41:29;13.25;;;6.40;;
54452;SDS011;40363;52.270;10.546;2023-03-21T08:43:56;15.13;;;6.78;;
54452;SDS011;40363;52.270;10.546;2023-03-21T08:46:24;13.77;;;7.22;;
54452;SDS011;40363;52.270;10.546;2023-03-21T08:48:51;12.82;;;6.55;;
54452;SDS011;40363;52.270;10.546;2023-03-21T08:51:18;12.98;;;6.00;;
54452;SDS011;40363;52.270;10.546;2023-03-21T08:53:45;10.10;;;6.13;;
54452;SDS011;40363;52.270;10.546;2023-03-21T08:56:11;12.07;;;6.63;;
54452;SDS011;40363;52.270;10.546;2023-03-21T08:58:38;15.90;;;6.32;;
54452;SDS011;40363;52.270;10.546;2023-03-21T09:01:05;31.30;;;7.47;;
54452;SDS011;40363;52.270;10.546;2023-03-21T09:03:36;12.70;;;5.50;;
54452;SDS011;40363;52.270;10.546;2023-03-21T09:06:03;16.38;;;6.25;;
54452;SDS011;40363;52.270;10.546;2023-03-21T09:08:30;13.52;;;6.15;;
54452;SDS011;40363;52.270;10.546;2023-03-21T09:10:56;15.20;;;5.68;;
54452;SDS011;40363;52.270;10.546;2023-03-21T09:13:23;14.90;;;5.47;;
54452;SDS011;40363;52.270;10.546;2023-03-21T09:15:50;13.32;;;6.13;;
54452;SDS011;40363;52.270;10.546;2023-03-21T09:18:18;13.65;;;6.50;;
54452;SDS011;40363;52.270;10.546;2023-03-21T09:20:47;15.25;;;5.95;;
54452;SDS011;40363;52.270;10.546;2023-03-21T09:23:14;16.85;;;5.85;;
54452;SDS011;40363;52.270;10.546;2023-03-21T09:25:43;11.48;;;6.22;;
54452;SDS011;40363;52.270;10.546;2023-03-21T09:28:10;12.55;;;5.60;;
54452;SDS011;40363;52.270;10.546;2023-03-21T09:30:37;11.32;;;5.95;;
54452;SDS011;40363;52.270;10.546;2023-03-21T09:33:04;14.50;;;6.65;;
54452;SDS011;40363;52.270;10.546;2023-03-21T09:35:32;12.23;;;5.30;;
54452;SDS011;40363;52.270;10.546;2023-03-21T09:38:01;14.07;;;6.28;;
54452;SDS011;40363;52.270;10.546;2023-03-21T09:40:38;12.13;;;6.00;;
54452;SDS011;40363;52.270;10.546;2023-03-21T09:43:19;17.95;;;6.22;;
54452;SDS011;40363;52.270;10.546;2023-03-21T09:45:59;14.90;;;7.18;;
54452;SDS011;40363;52.270;10.546;2023-03-21T09:48:33;14.50;;;6.50;;
54452;SDS011;40363;52.270;10.546;2023-03-21T09:51:07;14.63;;;6.05;;
54452;SDS011;40363;52.270;10.546;2023-03-21T09:53:41;21.92;;;7.82;;
54452;SDS011;40363;52.270;10.546;2023-03-21T09:56:09;9.50;;;6.07;;
54452;SDS011;40363;52.270;10.546;2023-03-21T09:58:38;15.73;;;6.43;;
54452;SDS011;40363;52.270;10.546;2023-03-21T10:01:11;20.83;;;6.97;;
54452;SDS011;40363;52.270;10.546;2023-03-21T10:03:46;16.30;;;7.38;;
54452;SDS011;40363;52.270;10.546;2023-03-21T10:06:14;17.08;;;6.95;;
54452;SDS011;40363;52.270;10.546;2023-03-21T10:08:43;15.18;;;7.32;;
54452;SDS011;40363;52.270;10.546;2023-03-21T10:11:13;18.13;;;7.50;;
54452;SDS011;40363;52.270;10.546;2023-03-21T10:13:45;13.88;;;7.82;;
54452;SDS011;40363;52.270;10.546;2023-03-21T10:16:16;17.00;;;7.32;;
54452;SDS011;40363;52.270;10.546;2023-03-21T10:18:46;17.80;;;7.32;;
54452;SDS011;40363;52.270;10.546;2023-03-21T10:21:19;18.10;;;7.03;;
54452;SDS011;40363;52.270;10.546;2023-03-21T10:23:49;16.77;;;7.88;;
54452;SDS011;40363;52.270;10.546;2023-03-21T10:26:17;17.80;;;6.30;;
54452;SDS011;40363;52.270;10.546;2023-03-21T10:28:50;18.83;;;8.38;;
54452;SDS011;40363;52.270;10.546;2023-03-21T10:31:19;17.23;;;7.10;;
54452;SDS011;40363;52.270;10.546;2023-03-21T10:33:51;14.15;;;6.50;;
54452;SDS011;40363;52.270;10.546;2023-03-21T10:36:21;19.85;;;6.43;;
54452;SDS011;40363;52.270;10.546;2023-03-21T10:38:53;12.88;;;6.63;;
54452;SDS011;40363;52.270;10.546;2023-03-21T10:41:21;14.15;;;6.88;;
54452;SDS011;40363;52.270;10.546;2023-03-21T10:44:02;12.70;;;6.18;;
54452;SDS011;40363;52.270;10.546;2023-03-21T10:46:31;13.05;;;6.40;;
54452;SDS011;40363;52.270;10.546;2023-03-21T10:48:59;18.08;;;7.72;;
54452;SDS011;40363;52.270;10.546;2023-03-21T10:51:26;9.57;;;5.57;;
54452;SDS011;40363;52.270;10.546;2023-03-21T10:53:57;12.20;;;6.32;;
54452;SDS011;40363;52.270;10.546;2023-03-21T10:56:26;14.30;;;6.13;;
54452;SDS011;40363;52.270;10.546;2023-03-21T10:58:55;15.23;;;6.20;;
54452;SDS011;40363;52.270;10.546;2023-03-21T11:01:25;15.55;;;6.07;;
54452;SDS011;40363;52.270;10.546;2023-03-21T11:03:55;13.05;;;5.53;;
54452;SDS011;40363;52.270;10.546;2023-03-21T11:06:28;16.45;;;6.05;;
54452;SDS011;40363;52.270;10.546;2023-03-21T11:09:00;12.75;;;6.07;;
54452;SDS011;40363;52.270;10.546;2023-03-21T11:11:32;11.00;;;5.55;;
54452;SDS011;40363;52.270;10.546;2023-03-21T11:14:01;14.20;;;5.45;;
54452;SDS011;40363;52.270;10.546;2023-03-21T11:16:34;13.85;;;6.00;;
54452;SDS011;40363;52.270;10.546;2023-03-21T11:19:11;15.60;;;6.30;;
54452;SDS011;40363;52.270;10.546;2023-03-21T11:21:39;16.55;;;6.43;;
54452;SDS011;40363;52.270;10.546;2023-03-21T11:24:08;10.57;;;6.15;;
54452;SDS011;40363;52.270;10.546;2023-03-21T11:26:38;16.48;;;6.03;;
54452;SDS011;40363;52.270;10.546;2023-03-21T11:29:09;13.20;;;5.85;;
54452;SDS011;40363;52.270;10.546;2023-03-21T11:31:45;12.77;;;5.82;;
54452;SDS011;40363;52.270;10.546;2023-03-21T11:34:20;12.82;;;6.68;;
54452;SDS011;40363;52.270;10.546;2023-03-21T11:36:51;18.27;;;7.38;;
54452;SDS011;40363;52.270;10.546;2023-03-21T11:39:31;12.05;;;6.25;;
54452;SDS011;40363;52.270;10.546;2023-03-21T11:42:01;12.27;;;5.85;;
54452;SDS011;40363;52.270;10.546;2023-03-21T11:44:29;15.90;;;5.57;;
54452;SDS011;40363;52.270;10.546;2023-03-21T11:46:58;12.70;;;5.53;;
54452;SDS011;40363;52.270;10.546;2023-03-21T11:49:24;15.25;;;6.22;;
54452;SDS011;40363;52.270;10.546;2023-03-21T11:51:57;9.40;;;5.22;;
54452;SDS011;40363;52.270;10.546;2023-03-21T11:54:36;13.27;;;5.53;;
54452;SDS011;40363;52.270;10.546;2023-03-21T11:57:13;12.93;;;5.95;;
54452;SDS011;40363;52.270;10.546;2023-03-21T11:59:53;15.77;;;6.45;;
54452;SDS011;40363;52.270;10.546;2023-03-21T12:02:44;10.90;;;5.45;;
54452;SDS011;40363;52.270;10.546;2023-03-21T12:05:42;10.65;;;4.95;;
54452;SDS011;40363;52.270;10.546;2023-03-21T12:08:21;12.35;;;6.28;;
54452;SDS011;40363;52.270;10.546;2023-03-21T12:11:00;12.65;;;5.53;;
54452;SDS011;40363;52.270;10.546;2023-03-21T12:13:40;14.88;;;6.90;;
54452;SDS011;40363;52.270;10.546;2023-03-21T12:16:22;14.52;;;6.85;;
54452;SDS011;40363;52.270;10.546;2023-03-21T12:19:01;15.27;;;6.57;;
54452;SDS011;40363;52.270;10.546;2023-03-21T12:21:38;16.10;;;6.70;;
54452;SDS011;40363;52.270;10.546;2023-03-21T12:24:16;15.02;;;7.57;;
54452;SDS011;40363;52.270;10.546;2023-03-21T12:26:50;13.50;;;6.00;;
54452;SDS011;40363;52.270;10.546;2023-03-21T12:29:29;12.20;;;6.53;;
54452;SDS011;40363;52.270;10.546;2023-03-21T12:32:09;13.45;;;6.80;;
54452;SDS011;40363;52.270;10.546;2023-03-21T12:34:54;14.03;;;6.87;;
54452;SDS011;40363;52.270;10.546;2023-03-21T12:37:32;16.45;;;6.57;;
54452;SDS011;40363;52.270;10.546;2023-03-21T12:40:08;13.85;;;5.72;;
54452;SDS011;40363;52.270;10.546;2023-03-21T12:42:50;16.70;;;6.25;;
54452;SDS011;40363;52.270;10.546;2023-03-21T12:45:28;13.23;;;6.13;;
54452;SDS011;40363;52.270;10.546;2023-03-21T12:47:59;13.75;;;5.65;;
54452;SDS011;40363;52.270;10.546;2023-03-21T12:53:13;14.32;;;6.32;;
54452;SDS011;40363;52.270;10.546;2023-03-21T12:55:51;13.82;;;5.35;;
54452;SDS011;40363;52.270;10.546;2023-03-21T12:58:23;11.63;;;5.78;;
54452;SDS011;40363;52.270;10.546;2023-03-21T13:00:54;12.23;;;6.45;;
54452;SDS011;40363;52.270;10.546;2023-03-21T13:03:25;11.50;;;6.20;;
54452;SDS011;40363;52.270;10.546;2023-03-21T13:05:56;15.38;;;6.18;;
54452;SDS011;40363;52.270;10.546;2023-03-21T13:08:26;12.43;;;6.72;;
54452;SDS011;40363;52.270;10.546;2023-03-21T13:10:57;12.80;;;6.40;;
54452;SDS011;40363;52.270;10.546;2023-03-21T13:13:27;15.55;;;6.68;;
54452;SDS011;40363;52.270;10.546;2023-03-21T13:16:03;14.63;;;6.85;;
54452;SDS011;40363;52.270;10.546;2023-03-21T13:18:42;15.77;;;6.18;;
54452;SDS011;40363;52.270;10.546;2023-03-21T13:21:20;14.73;;;6.72;;
54452;SDS011;40363;52.270;10.546;2023-03-21T13:23:58;13.00;;;6.78;;
54452;SDS011;40363;52.270;10.546;2023-03-21T13:26:31;16.25;;;6.60;;
54452;SDS011;40363;52.270;10.546;2023-03-21T13:29:02;14.50;;;7.90;;
54452;SDS011;40363;52.270;10.546;2023-03-21T13:31:42;14.65;;;7.03;;
54452;SDS011;40363;52.270;10.546;2023-03-21T13:34:09;20.25;;;7.05;;
54452;SDS011;40363;52.270;10.546;2023-03-21T13:36:38;13.82;;;6.75;;
54452;SDS011;40363;52.270;10.546;2023-03-21T13:39:11;14.00;;;6.35;;
54452;SDS011;40363;52.270;10.546;2023-03-21T13:41:43;16.80;;;7.30;;
54452;SDS011;40363;52.270;10.546;2023-03-21T13:44:22;17.38;;;7.45;;
54452;SDS011;40363;52.270;10.546;2023-03-21T13:46:52;17.08;;;7.10;;
54452;SDS011;40363;52.270;10.546;2023-03-21T13:49:29;18.90;;;7.90;;
54452;SDS011;40363;52.270;10.546;2023-03-21T13:52:00;13.60;;;7.75;;
54452;SDS011;40363;52.270;10.546;2023-03-21T13:54:48;19.55;;;8.43;;
54452;SDS011;40363;52.270;10.546;2023-03-21T13:57:20;16.23;;;7.13;;
54452;SDS011;40363;52.270;10.546;2023-03-21T13:59:51;15.93;;;8.32;;
54452;SDS011;40363;52.270;10.546;2023-03-21T14:02:52;15.38;;;7.68;;
54452;SDS011;40363;52.270;10.546;2023-03-21T14:05:22;22.63;;;9.38;;
54452;SDS011;40363;52.270;10.546;2023-03-21T14:07:52;18.58;;;8.60;;
54452;SDS011;40363;52.270;10.546;2023-03-21T14:10:22;17.92;;;8.02;;
54452;SDS011;40363;52.270;10.546;2023-03-21T14:12:54;23.00;;;8.25;;
54452;SDS011;40363;52.270;10.546;2023-03-21T14:15:25;19.33;;;7.80;;
54452;SDS011;40363;52.270;10.546;2023-03-21T14:17:53;18.98;;;8.30;;
54452;SDS011;40363;52.270;10.546;2023-03-21T14:20:22;17.48;;;8.13;;
54452;SDS011;40363;52.270;10.546;2023-03-21T14:22:51;19.45;;;8.32;;
54452;SDS011;40363;52.270;10.546;2023-03-21T14:25:18;18.77;;;8.50;;
54452;SDS011;40363;52.270;10.546;2023-03-21T14:27:48;14.88;;;7.18;;
54452;SDS011;40363;52.270;10.546;2023-03-21T14:30:19;17.70;;;7.20;;
54452;SDS011;40363;52.270;10.546;2023-03-21T14:32:49;14.93;;;8.43;;
54452;SDS011;40363;52.270;10.546;2023-03-21T14:35:20;16.52;;;7.82;;
54452;SDS011;40363;52.270;10.546;2023-03-21T14:37:47;21.23;;;8.98;;
54452;SDS011;40363;52.270;10.546;2023-03-21T14:40:18;21.00;;;8.38;;
54452;SDS011;40363;52.270;10.546;2023-03-21T14:42:47;16.88;;;8.05;;
54452;SDS011;40363;52.270;10.546;2023-03-21T14:45:16;16.45;;;8.38;;